Sakaide Maru — 3EYR6 — position and weather

sailwx.info

Track history (hours):
 
Tides and Currents Weather Stations Pressure Air Temp Water Temp Dewpoint Dewpoint Depression Visibility Wind Speed Wind Dir Waves Ship Positions

Sakaide Maru

Last reported at 2014-Jun-24 16:15 UTC. Time now 2014-Jul-24 05:54 UTC.
Position N 34°01' E 134°57'.
Warning: this ship's position is 29 days out of date.

Length 255 m; draft 8.2 m.

Type: Cargo ship. MMSI: 354898000.

Date/timePositionNaut miles runAvg speedWind from/ knotsBaromVisibWave heightAir tempDewpointWater temp
2014-Jun-24 16:15N 34°01' E 134°57'913.3
2014-Jun-24 15:33N 34°10' E 134°58'  
2014-Jun-21 04:06N 34°31' E 134°42'812.4
2014-Jun-21 03:27N 34°34' E 134°51'1010.6
2014-Jun-21 02:32N 34°37' E 135°02'7 6.7
2014-Jun-21 01:33N 34°32' E 135°07'1211.3
2014-Jun-21 00:30N 34°21' E 135°01'1010.2
2014-Jun-20 23:33N 34°11' E 134°59'9 8.6
2014-Jun-20 22:33N 34°03' E 134°59'1111.4
2014-Jun-20 21:33N 33°51' E 134°58'  
Track history (hours):
 
Tides and Currents Weather Stations Pressure Air Temp Water Temp Dewpoint Dewpoint Depression Visibility Wind Speed Wind Dir Waves Ship Positions

Sakaide Maru

Last reported at 2014-Jun-24 16:15 UTC. Time now 2014-Jul-24 05:54 UTC.
Position N 34°01' E 134°57'.
Warning: this ship's position is 29 days out of date.

Length 255 m; draft 8.2 m.

Type: Cargo ship. MMSI: 354898000.

Date/timePositionNaut miles runAvg speedWind from/ knotsBaromVisibWave heightAir tempDewpointWater temp
2014-Jun-24 16:15N 34°01' E 134°57'913.3
2014-Jun-24 15:33N 34°10' E 134°58'  
2014-Jun-21 04:06N 34°31' E 134°42'812.4
2014-Jun-21 03:27N 34°34' E 134°51'1010.6
2014-Jun-21 02:32N 34°37' E 135°02'7 6.7
2014-Jun-21 01:33N 34°32' E 135°07'1211.3
2014-Jun-21 00:30N 34°21' E 135°01'1010.2
2014-Jun-20 23:33N 34°11' E 134°59'9 8.6
2014-Jun-20 22:33N 34°03' E 134°59'1111.4
2014-Jun-20 21:33N 33°51' E 134°58'  

Dump ship's entire track history